PWSweather.com
Personal Weather Stations
Station Observations
SHAHALMS1
Eftra, Falkenberg, HA

EftraFalkenberg, HA

Lat: 56.85, Lon: 12.65

Elevation: 140

Station Type:

http://hem.passagen.se/risarp101

High Low Average
Temperature 49.8°F9.9°C 43.2°F6.2°C 46.3°F7.9°C
Dew Point 46.1°F7.8°C 37.5°F3.1°C 41.3°F5.2°C
Winds 21.9 mph 35.2 kmh 0.6 mph 1.0 kmh 9.0 mph SSW14.5 kmh SSW
Wind Gusts 49.4 mph79.5 kmh 6.1 mph9.8 kmh 20.0 mph32.2 kmh
Humidity 93% 74% 83%
Pressure 29.83 in1010.2 mb 29.12 in986.1 mb -
Precipitation 0.15 in3.8 mm - -
Hour Temp Dew Point Humidity Winds Wind Gusts Pressure Precip Precip Rate Daily Precip Total
12:00 AM 46.9°F8.3°C 41.1°F5.1°C 80% 12.1 mph S19.5 kmh S 35.4 mph57.0 kmh 29.12 in986.1 mb 0.09 in2.3 mm 0.00 in0.0 mm 0.09 in2.3 mm
12:15 AM 45.3°F7.4°C 38.5°F3.6°C 77% 9.3 mph S15.0 kmh S 32.2 mph51.8 kmh 29.12 in986.1 mb 0.09 in2.3 mm 0.00 in0.0 mm 0.09 in2.3 mm
12:30 AM 44.8°F7.1°C 38.7°F3.7°C 79% 8.7 mph S14.0 kmh S 26.1 mph42.0 kmh 29.12 in986.1 mb 0.09 in2.3 mm 0.00 in0.0 mm 0.09 in2.3 mm
12:45 AM 44.2°F6.8°C 37.8°F3.2°C 78% 8.1 mph S13.0 kmh S 23.3 mph37.5 kmh 29.15 in987.1 mb 0.05 in1.3 mm 0.00 in0.0 mm 0.09 in2.3 mm
01:00 AM 43.9°F6.6°C 37.5°F3.1°C 78% 6.7 mph S10.8 kmh S 24.7 mph39.8 kmh 29.15 in987.1 mb 0.00 in0.0 mm 0.00 in0.0 mm 0.09 in2.3 mm
01:15 AM 43.9°F6.6°C 37.5°F3.1°C 78% 6.1 mph S9.8 kmh S 15.4 mph24.8 kmh 29.15 in987.1 mb 0.00 in0.0 mm 0.00 in0.0 mm 0.09 in2.3 mm
01:30 AM 43.9°F6.6°C 37.5°F3.1°C 78% 5.1 mph SSE8.2 kmh SSE 13.6 mph21.9 kmh 29.15 in987.1 mb 0.00 in0.0 mm 0.00 in0.0 mm 0.09 in2.3 mm
01:45 AM 43.7°F6.5°C 37.6°F3.1°C 79% 5.2 mph SSE8.4 kmh SSE 21.5 mph34.6 kmh 29.15 in987.1 mb 0.00 in0.0 mm 0.00 in0.0 mm 0.09 in2.3 mm
02:00 AM 43.5°F6.4°C 37.8°F3.2°C 80% 7.9 mph SSE12.7 kmh SSE 17.2 mph27.7 kmh 29.15 in987.1 mb 0.00 in0.0 mm 0.00 in0.0 mm 0.09 in2.3 mm
02:15 AM 43.3°F6.3°C 38.2°F3.4°C 82% 4.2 mph S6.8 kmh S 10.7 mph17.2 kmh 29.15 in987.1 mb 0.00 in0.0 mm 0.00 in0.0 mm 0.09 in2.3 mm
02:30 AM 43.2°F6.2°C 38.3°F3.5°C 83% 4.4 mph ESE7.1 kmh ESE 15.7 mph25.3 kmh 29.15 in987.1 mb 0.06 in1.5 mm 0.24 in6.1 mm 0.06 in1.5 mm
02:45 AM 43.2°F6.2°C 38.7°F3.7°C 84% 6.1 mph SE9.8 kmh SE 15.4 mph24.8 kmh 29.15 in987.1 mb 0.06 in1.5 mm 0.00 in0.0 mm 0.06 in1.5 mm
03:00 AM 43.2°F6.2°C 38.7°F3.7°C 84% 3.6 mph SE5.8 kmh SE 10.0 mph16.1 kmh 29.15 in987.1 mb 0.06 in1.5 mm 0.00 in0.0 mm 0.06 in1.5 mm
03:15 AM 43.2°F6.2°C 39.0°F3.9°C 85% 6.8 mph SE10.9 kmh SE 19.0 mph30.6 kmh 29.15 in987.1 mb 0.06 in1.5 mm 0.00 in0.0 mm 0.06 in1.5 mm
03:30 AM 43.3°F6.3°C 39.4°F4.1°C 86% 6.0 mph SE9.7 kmh SE 15.7 mph25.3 kmh 29.15 in987.1 mb 0.00 in0.0 mm 0.00 in0.0 mm 0.06 in1.5 mm
03:45 AM 43.3°F6.3°C 39.7°F4.3°C 87% 5.8 mph ESE9.3 kmh ESE 15.7 mph25.3 kmh 29.15 in987.1 mb 0.00 in0.0 mm 0.00 in0.0 mm 0.06 in1.5 mm
04:00 AM 43.5°F6.4°C 39.9°F4.4°C 87% 5.8 mph SSE9.3 kmh SSE 19.0 mph30.6 kmh 29.15 in987.1 mb 0.00 in0.0 mm 0.00 in0.0 mm 0.06 in1.5 mm
04:15 AM 43.7°F6.5°C 40.4°F4.7°C 88% 4.1 mph SSE6.6 kmh SSE 9.7 mph15.6 kmh 29.15 in987.1 mb 0.00 in0.0 mm 0.00 in0.0 mm 0.06 in1.5 mm
04:30 AM 44.1°F6.7°C 40.7°F4.8°C 88% 7.7 mph S12.4 kmh S 19.3 mph31.1 kmh 29.15 in987.1 mb 0.00 in0.0 mm 0.00 in0.0 mm 0.06 in1.5 mm
04:45 AM 44.1°F6.7°C 40.1°F4.5°C 86% 8.7 mph S14.0 kmh S 19.3 mph31.1 kmh 29.15 in987.1 mb 0.00 in0.0 mm 0.00 in0.0 mm 0.06 in1.5 mm
05:00 AM 44.1°F6.7°C 39.5°F4.2°C 84% 7.4 mph S11.9 kmh S 17.9 mph28.8 kmh 29.15 in987.1 mb 0.05 in1.3 mm 0.07 in1.8 mm 0.10 in2.5 mm
05:15 AM 44.2°F6.8°C 39.4°F4.1°C 83% 8.0 mph S12.9 kmh S 18.3 mph29.5 kmh 29.15 in987.1 mb 0.05 in1.3 mm 0.00 in0.0 mm 0.10 in2.5 mm
05:30 AM 44.2°F6.8°C 39.1°F3.9°C 82% 8.7 mph SSW14.0 kmh SSW 20.4 mph32.8 kmh 29.18 in988.1 mb 0.05 in1.3 mm 0.00 in0.0 mm 0.10 in2.5 mm
05:45 AM 44.1°F6.7°C 38.6°F3.7°C 81% 10.5 mph SW16.9 kmh SW 30.1 mph48.4 kmh 29.18 in988.1 mb 0.05 in1.3 mm 0.00 in0.0 mm 0.10 in2.5 mm
06:00 AM 44.1°F6.7°C 37.6°F3.1°C 78% 10.8 mph S17.4 kmh S 21.1 mph34.0 kmh 29.21 in989.2 mb 0.00 in0.0 mm 0.00 in0.0 mm 0.10 in2.5 mm
06:15 AM 44.2°F6.8°C 38.5°F3.6°C 80% 8.1 mph S13.0 kmh S 19.3 mph31.1 kmh 29.21 in989.2 mb 0.00 in0.0 mm 0.00 in0.0 mm 0.10 in2.5 mm
06:30 AM 44.1°F6.7°C 38.6°F3.7°C 81% 8.6 mph S13.8 kmh S 17.5 mph28.2 kmh 29.21 in989.2 mb 0.00 in0.0 mm 0.00 in0.0 mm 0.10 in2.5 mm
06:45 AM 44.2°F6.8°C 38.5°F3.6°C 80% 8.8 mph S14.2 kmh S 19.3 mph31.1 kmh 29.24 in990.2 mb 0.00 in0.0 mm 0.00 in0.0 mm 0.10 in2.5 mm
07:00 AM 44.4°F6.9°C 38.3°F3.5°C 79% 8.9 mph S14.3 kmh S 21.5 mph34.6 kmh 29.24 in990.2 mb 0.00 in0.0 mm 0.00 in0.0 mm 0.10 in2.5 mm
07:15 AM 44.4°F6.9°C 38.3°F3.5°C 79% 7.9 mph S12.7 kmh S 17.5 mph28.2 kmh 29.27 in991.2 mb 0.00 in0.0 mm 0.00 in0.0 mm 0.10 in2.5 mm
07:30 AM 44.4°F6.9°C 38.3°F3.5°C 79% 9.2 mph S14.8 kmh S 23.6 mph38.0 kmh 29.27 in991.2 mb 0.00 in0.0 mm 0.00 in0.0 mm 0.10 in2.5 mm
07:45 AM 44.4°F6.9°C 38.3°F3.5°C 79% 8.3 mph S13.4 kmh S 21.1 mph34.0 kmh 29.27 in991.2 mb 0.00 in0.0 mm 0.00 in0.0 mm 0.10 in2.5 mm
08:00 AM 44.6°F7.0°C 38.2°F3.4°C 78% 9.0 mph S14.5 kmh S 16.8 mph27.0 kmh 29.30 in992.2 mb 0.00 in0.0 mm 0.00 in0.0 mm 0.10 in2.5 mm
08:15 AM 44.8°F7.1°C 38.0°F3.3°C 77% 9.2 mph S14.8 kmh S 16.5 mph26.6 kmh 29.30 in992.2 mb 0.00 in0.0 mm 0.00 in0.0 mm 0.10 in2.5 mm
08:30 AM 45.0°F7.2°C 38.8°F3.8°C 79% 8.8 mph S14.2 kmh S 16.8 mph27.0 kmh 29.33 in993.2 mb 0.00 in0.0 mm 0.00 in0.0 mm 0.10 in2.5 mm
08:45 AM 44.6°F7.0°C 40.1°F4.5°C 84% 8.1 mph S13.0 kmh S 19.3 mph31.1 kmh 29.36 in994.2 mb 0.00 in0.0 mm 0.00 in0.0 mm 0.10 in2.5 mm
09:00 AM 44.6°F7.0°C 41.0°F5.0°C 87% 6.8 mph S10.9 kmh S 16.8 mph27.0 kmh 29.30 in992.2 mb 0.00 in0.0 mm 0.00 in0.0 mm 0.10 in2.5 mm
09:15 AM 44.8°F7.1°C 41.4°F5.2°C 88% 7.1 mph S11.4 kmh S 23.6 mph38.0 kmh 29.33 in993.2 mb 0.00 in0.0 mm 0.00 in0.0 mm 0.10 in2.5 mm
09:30 AM 45.7°F7.6°C 43.2°F6.2°C 91% 8.9 mph S14.3 kmh S 25.4 mph40.9 kmh 29.33 in993.2 mb 0.00 in0.0 mm 0.00 in0.0 mm 0.10 in2.5 mm
09:45 AM 46.9°F8.3°C 45.0°F7.2°C 93% 9.8 mph SSW15.8 kmh SSW 21.1 mph34.0 kmh 29.36 in994.2 mb 0.00 in0.0 mm 0.00 in0.0 mm 0.10 in2.5 mm
10:00 AM 48.0°F8.9°C 46.1°F7.8°C 93% 15.2 mph SW24.5 kmh SW 29.0 mph46.7 kmh 29.36 in994.2 mb 0.00 in0.0 mm 0.00 in0.0 mm 0.10 in2.5 mm
10:15 AM 48.2°F9.0°C 46.0°F7.8°C 92% 16.2 mph SSW26.1 kmh SSW 49.4 mph79.5 kmh 29.39 in995.3 mb 0.00 in0.0 mm 0.00 in0.0 mm 0.10 in2.5 mm
10:30 AM 48.2°F9.0°C 46.0°F7.8°C 92% 17.8 mph SW28.6 kmh SW 37.9 mph61.0 kmh 29.39 in995.3 mb 0.00 in0.0 mm 0.00 in0.0 mm 0.10 in2.5 mm
10:45 AM 48.2°F9.0°C 46.0°F7.8°C 92% 21.9 mph WSW35.2 kmh WSW 44.7 mph71.9 kmh 29.36 in994.2 mb 0.00 in0.0 mm 0.00 in0.0 mm 0.10 in2.5 mm
11:00 AM 48.4°F9.1°C 45.9°F7.7°C 91% 20.6 mph WSW33.2 kmh WSW 39.4 mph63.4 kmh 29.39 in995.3 mb 0.00 in0.0 mm 0.00 in0.0 mm 0.10 in2.5 mm
11:15 AM 48.6°F9.2°C 46.1°F7.8°C 91% 16.4 mph WSW26.4 kmh WSW 39.0 mph62.8 kmh 29.45 in997.3 mb 0.00 in0.0 mm 0.00 in0.0 mm 0.10 in2.5 mm
11:30 AM 48.6°F9.2°C 45.8°F7.7°C 90% 19.4 mph W31.2 kmh W 39.4 mph63.4 kmh 29.45 in997.3 mb 0.00 in0.0 mm 0.00 in0.0 mm 0.10 in2.5 mm
11:45 AM 49.1°F9.5°C 45.7°F7.6°C 88% 15.8 mph W25.4 kmh W 31.5 mph50.7 kmh 29.45 in997.3 mb 0.00 in0.0 mm 0.00 in0.0 mm 0.10 in2.5 mm
12:00 PM 49.3°F9.6°C 45.3°F7.4°C 86% 14.5 mph W23.3 kmh W 36.1 mph58.1 kmh 29.47 in998.0 mb 0.00 in0.0 mm 0.00 in0.0 mm 0.10 in2.5 mm
12:15 PM 48.9°F9.4°C 44.6°F7.0°C 85% 14.1 mph W22.7 kmh W 29.7 mph47.8 kmh 29.47 in998.0 mb 0.05 in1.3 mm 0.20 in5.1 mm 0.15 in3.8 mm
12:30 PM 48.2°F9.0°C 43.6°F6.4°C 84% 16.0 mph W25.7 kmh W 36.5 mph58.7 kmh 29.50 in999.0 mb 0.05 in1.3 mm 0.00 in0.0 mm 0.15 in3.8 mm
12:45 PM 48.9°F9.4°C 45.2°F7.3°C 87% 14.2 mph W22.9 kmh W 27.9 mph44.9 kmh 29.50 in999.0 mb 0.05 in1.3 mm 0.00 in0.0 mm 0.15 in3.8 mm
01:00 PM 49.3°F9.6°C 45.0°F7.2°C 85% 10.5 mph W16.9 kmh W 24.3 mph39.1 kmh 29.53 in1000.0 mb 0.05 in1.3 mm 0.00 in0.0 mm 0.15 in3.8 mm
01:15 PM 49.6°F9.8°C 44.0°F6.7°C 81% 10.9 mph W17.5 kmh W 21.1 mph34.0 kmh 29.56 in1001.0 mb 0.00 in0.0 mm 0.00 in0.0 mm 0.15 in3.8 mm
01:30 PM 49.5°F9.7°C 42.9°F6.1°C 78% 10.8 mph W17.4 kmh W 23.3 mph37.5 kmh 29.56 in1001.0 mb 0.00 in0.0 mm 0.00 in0.0 mm 0.15 in3.8 mm
01:45 PM 49.8°F9.9°C 43.6°F6.4°C 79% 10.2 mph WSW16.4 kmh WSW 18.3 mph29.5 kmh 29.56 in1001.0 mb 0.00 in0.0 mm 0.00 in0.0 mm 0.15 in3.8 mm
02:00 PM 49.8°F9.9°C 43.2°F6.2°C 78% 10.2 mph W16.4 kmh W 23.3 mph37.5 kmh 29.59 in1002.0 mb 0.00 in0.0 mm 0.00 in0.0 mm 0.15 in3.8 mm
02:15 PM 49.5°F9.7°C 42.2°F5.7°C 76% 10.0 mph WSW16.1 kmh WSW 20.4 mph32.8 kmh 29.59 in1002.0 mb 0.00 in0.0 mm 0.00 in0.0 mm 0.15 in3.8 mm
02:30 PM 49.6°F9.8°C 42.4°F5.8°C 76% 10.6 mph WSW17.1 kmh WSW 20.0 mph32.2 kmh 29.59 in1002.0 mb 0.00 in0.0 mm 0.00 in0.0 mm 0.15 in3.8 mm
02:45 PM 49.6°F9.8°C 42.0°F5.6°C 75% 9.1 mph WSW14.6 kmh WSW 19.3 mph31.1 kmh 29.62 in1003.0 mb 0.00 in0.0 mm 0.00 in0.0 mm 0.15 in3.8 mm
03:00 PM 49.3°F9.6°C 41.3°F5.2°C 74% 10.5 mph WSW16.9 kmh WSW 24.3 mph39.1 kmh 29.62 in1003.0 mb 0.00 in0.0 mm 0.00 in0.0 mm 0.15 in3.8 mm
03:15 PM 48.7°F9.3°C 41.2°F5.1°C 75% 9.6 mph W15.4 kmh W 19.3 mph31.1 kmh 29.59 in1002.0 mb 0.00 in0.0 mm 0.00 in0.0 mm 0.15 in3.8 mm
03:30 PM 48.4°F9.1°C 40.8°F4.9°C 75% 11.1 mph WSW17.9 kmh WSW 21.1 mph34.0 kmh 29.62 in1003.0 mb 0.00 in0.0 mm 0.00 in0.0 mm 0.15 in3.8 mm
03:46 PM 48.0°F8.9°C 40.5°F4.7°C 75% 9.5 mph WSW15.3 kmh WSW 20.4 mph32.8 kmh 29.62 in1003.0 mb 0.00 in0.0 mm 0.00 in0.0 mm 0.15 in3.8 mm
04:00 PM 47.5°F8.6°C 40.3°F4.6°C 76% 8.3 mph W13.4 kmh W 16.5 mph26.6 kmh 29.65 in1004.1 mb 0.00 in0.0 mm 0.00 in0.0 mm 0.15 in3.8 mm
04:15 PM 47.3°F8.5°C 40.5°F4.7°C 77% 7.6 mph WSW12.2 kmh WSW 16.1 mph25.9 kmh 29.68 in1005.1 mb 0.00 in0.0 mm 0.00 in0.0 mm 0.15 in3.8 mm
04:30 PM 47.7°F8.7°C 41.1°F5.1°C 78% 9.8 mph WSW15.8 kmh WSW 21.1 mph34.0 kmh 29.71 in1006.1 mb 0.00 in0.0 mm 0.00 in0.0 mm 0.15 in3.8 mm
04:45 PM 47.5°F8.6°C 40.6°F4.8°C 77% 9.7 mph WSW15.6 kmh WSW 16.5 mph26.6 kmh 29.65 in1004.1 mb 0.00 in0.0 mm 0.00 in0.0 mm 0.15 in3.8 mm
05:00 PM 47.3°F8.5°C 40.1°F4.5°C 76% 8.7 mph WSW14.0 kmh WSW 16.8 mph27.0 kmh 29.68 in1005.1 mb 0.00 in0.0 mm 0.00 in0.0 mm 0.15 in3.8 mm
05:15 PM 46.6°F8.1°C 39.4°F4.1°C 76% 6.8 mph W10.9 kmh W 15.4 mph24.8 kmh 29.68 in1005.1 mb 0.00 in0.0 mm 0.00 in0.0 mm 0.15 in3.8 mm
05:30 PM 46.2°F7.9°C 39.4°F4.1°C 77% 6.0 mph W9.7 kmh W 13.6 mph21.9 kmh 29.68 in1005.1 mb 0.00 in0.0 mm 0.00 in0.0 mm 0.15 in3.8 mm
05:45 PM 45.5°F7.5°C 39.0°F3.9°C 78% 5.5 mph W8.9 kmh W 10.4 mph16.7 kmh 29.71 in1006.1 mb 0.00 in0.0 mm 0.00 in0.0 mm 0.15 in3.8 mm
06:00 PM 45.5°F7.5°C 39.4°F4.1°C 79% 6.1 mph W9.8 kmh W 11.8 mph19.0 kmh 29.71 in1006.1 mb 0.00 in0.0 mm 0.00 in0.0 mm 0.15 in3.8 mm
06:15 PM 45.3°F7.4°C 39.2°F4.0°C 79% 5.9 mph SW9.5 kmh SW 12.2 mph19.6 kmh 29.74 in1007.1 mb 0.00 in0.0 mm 0.00 in0.0 mm 0.15 in3.8 mm
06:30 PM 45.3°F7.4°C 39.5°F4.2°C 80% 4.9 mph S7.9 kmh S 11.8 mph19.0 kmh 29.74 in1007.1 mb 0.00 in0.0 mm 0.00 in0.0 mm 0.15 in3.8 mm
06:45 PM 45.3°F7.4°C 39.5°F4.2°C 80% 5.3 mph SW8.5 kmh SW 11.8 mph19.0 kmh 29.71 in1006.1 mb 0.00 in0.0 mm 0.00 in0.0 mm 0.15 in3.8 mm
07:00 PM 46.4°F8.0°C 41.2°F5.1°C 82% 6.6 mph SSW10.6 kmh SSW 16.1 mph25.9 kmh 29.74 in1007.1 mb 0.00 in0.0 mm 0.00 in0.0 mm 0.15 in3.8 mm
07:15 PM 47.1°F8.4°C 42.8°F6.0°C 85% 6.0 mph SSW9.7 kmh SSW 12.2 mph19.6 kmh 29.74 in1007.1 mb 0.00 in0.0 mm 0.00 in0.0 mm 0.15 in3.8 mm
07:30 PM 47.7°F8.7°C 44.0°F6.7°C 87% 5.5 mph S8.9 kmh S 11.8 mph19.0 kmh 29.77 in1008.1 mb 0.00 in0.0 mm 0.00 in0.0 mm 0.15 in3.8 mm
07:45 PM 47.8°F8.8°C 43.9°F6.6°C 86% 7.0 mph S11.3 kmh S 16.1 mph25.9 kmh 29.77 in1008.1 mb 0.00 in0.0 mm 0.00 in0.0 mm 0.15 in3.8 mm
08:00 PM 48.0°F8.9°C 44.0°F6.7°C 86% 6.7 mph SSW10.8 kmh SSW 13.6 mph21.9 kmh 29.80 in1009.1 mb 0.00 in0.0 mm 0.00 in0.0 mm 0.15 in3.8 mm
08:15 PM 48.4°F9.1°C 44.4°F6.9°C 86% 8.0 mph SW12.9 kmh SW 16.1 mph25.9 kmh 29.80 in1009.1 mb 0.00 in0.0 mm 0.00 in0.0 mm 0.15 in3.8 mm
08:30 PM 48.4°F9.1°C 44.4°F6.9°C 86% 8.1 mph SW13.0 kmh SW 14.0 mph22.5 kmh 29.80 in1009.1 mb 0.00 in0.0 mm 0.00 in0.0 mm 0.15 in3.8 mm
08:45 PM 48.2°F9.0°C 43.9°F6.6°C 85% 8.5 mph SW13.7 kmh SW 16.8 mph27.0 kmh 29.80 in1009.1 mb 0.00 in0.0 mm 0.00 in0.0 mm 0.15 in3.8 mm
09:00 PM 48.2°F9.0°C 43.6°F6.4°C 84% 10.1 mph S16.3 kmh S 21.1 mph34.0 kmh 29.77 in1008.1 mb 0.00 in0.0 mm 0.00 in0.0 mm 0.15 in3.8 mm
09:15 PM 47.8°F8.8°C 43.2°F6.2°C 84% 7.0 mph SW11.3 kmh SW 13.6 mph21.9 kmh 29.77 in1008.1 mb 0.00 in0.0 mm 0.00 in0.0 mm 0.15 in3.8 mm
09:30 PM 47.3°F8.5°C 42.7°F5.9°C 84% 6.4 mph SW10.3 kmh SW 14.0 mph22.5 kmh 29.80 in1009.1 mb 0.00 in0.0 mm 0.00 in0.0 mm 0.15 in3.8 mm
09:45 PM 47.3°F8.5°C 43.0°F6.1°C 85% 5.5 mph S8.9 kmh S 11.8 mph19.0 kmh 29.83 in1010.2 mb 0.00 in0.0 mm 0.00 in0.0 mm 0.15 in3.8 mm
10:00 PM 47.1°F8.4°C 42.8°F6.0°C 85% 6.7 mph S10.8 kmh S 14.0 mph22.5 kmh 29.83 in1010.2 mb 0.00 in0.0 mm 0.00 in0.0 mm 0.15 in3.8 mm
10:15 PM 46.9°F8.3°C 43.0°F6.1°C 86% 5.1 mph S8.2 kmh S 10.4 mph16.7 kmh 29.83 in1010.2 mb 0.00 in0.0 mm 0.00 in0.0 mm 0.15 in3.8 mm
10:30 PM 46.9°F8.3°C 43.0°F6.1°C 86% 4.3 mph S6.9 kmh S 10.0 mph16.1 kmh 29.83 in1010.2 mb 0.00 in0.0 mm 0.00 in0.0 mm 0.15 in3.8 mm
10:45 PM 47.1°F8.4°C 43.1°F6.2°C 86% 3.4 mph S5.5 kmh S 9.7 mph15.6 kmh 29.83 in1010.2 mb 0.00 in0.0 mm 0.00 in0.0 mm 0.15 in3.8 mm
11:00 PM 46.9°F8.3°C 43.0°F6.1°C 86% 2.4 mph S3.9 kmh S 7.2 mph11.6 kmh 29.83 in1010.2 mb 0.00 in0.0 mm 0.00 in0.0 mm 0.15 in3.8 mm
11:15 PM 46.6°F8.1°C 42.6°F5.9°C 86% 0.6 mph SE1.0 kmh SE 6.1 mph9.8 kmh 29.83 in1010.2 mb 0.00 in0.0 mm 0.00 in0.0 mm 0.15 in3.8 mm
11:30 PM 46.2°F7.9°C 42.3°F5.7°C 86% 5.7 mph SE9.2 kmh SE 10.0 mph16.1 kmh 29.83 in1010.2 mb 0.00 in0.0 mm 0.00 in0.0 mm 0.15 in3.8 mm
11:45 PM 46.0°F7.8°C 42.1°F5.6°C 86% 4.6 mph SE7.4 kmh SE 9.7 mph15.6 kmh 29.83 in1010.2 mb 0.00 in0.0 mm 0.00 in0.0 mm 0.15 in3.8 mm